Time;durP1;ratioP1;P1;durP2;ratioP2;P2;SDS_P1;SDS_P2;PMS_P1;PMS_P2;Temp;Humidity;BMP_temperature;BMP_pressure;BME280_temperature;BME280_humidity;BME280_pressure;Samples;Min_cycle;Max_cycle;Signal;HPM_P1;HPM_P2
2021/04/01 00:01:46;;;;;;;6.88;4.47;;;12.70;99.90;;;;;;5058530;28;20407;-74
2021/04/01 00:04:13;;;;;;;9.90;4.18;;;12.70;99.90;;;;;;5058097;28;20390;-75
2021/04/01 00:06:39;;;;;;;9.57;5.68;;;12.60;99.90;;;;;;5058468;28;20032;-74
2021/04/01 00:09:05;;;;;;;8.57;5.53;;;12.60;99.90;;;;;;5040497;28;20116;-74
2021/04/01 00:11:32;;;;;;;8.50;5.75;;;12.60;99.90;;;;;;5058396;28;20021;-74
2021/04/01 00:14:01;;;;;;;7.75;4.95;;;12.60;99.90;;;;;;5058280;28;20027;-74
2021/04/01 00:16:28;;;;;;;6.63;4.60;;;12.50;99.90;;;;;;5057675;28;20068;-74
2021/04/01 00:18:55;;;;;;;6.88;4.40;;;12.50;99.90;;;;;;5058188;28;20063;-74
2021/04/01 00:21:21;;;;;;;7.82;4.80;;;12.50;99.90;;;;;;5058377;28;20040;-75
2021/04/01 00:23:47;;;;;;;6.32;3.88;;;12.50;99.90;;;;;;5057568;28;20033;-73
2021/04/01 00:26:13;;;;;;;6.22;3.88;;;12.50;99.90;;;;;;5057986;28;20036;-74
2021/04/01 00:28:39;;;;;;;5.97;3.65;;;12.50;99.90;;;;;;5055690;28;20029;-75
2021/04/01 00:31:05;;;;;;;6.03;4.03;;;12.60;99.90;;;;;;5055103;28;20349;-75
2021/04/01 00:33:31;;;;;;;5.72;3.80;;;12.60;99.90;;;;;;5055028;28;20029;-75
2021/04/01 00:35:57;;;;;;;7.55;4.38;;;12.60;99.90;;;;;;5054725;28;20057;-75
2021/04/01 00:38:23;;;;;;;6.68;3.97;;;12.70;99.90;;;;;;5055059;28;20028;-74
2021/04/01 00:40:49;;;;;;;5.90;4.00;;;12.70;99.90;;;;;;5054930;28;20033;-73
2021/04/01 00:43:15;;;;;;;6.18;3.90;;;12.70;99.90;;;;;;5054764;28;20117;-76
2021/04/01 00:45:41;;;;;;;6.85;4.13;;;12.70;99.90;;;;;;5054563;28;20039;-75
2021/04/01 00:48:07;;;;;;;7.60;3.58;;;12.70;99.90;;;;;;5036835;28;20491;-76
2021/04/01 00:50:33;;;;;;;6.00;3.60;;;12.70;99.90;;;;;;5054743;28;20379;-75
2021/04/01 00:53:00;;;;;;;5.97;3.55;;;12.80;99.90;;;;;;5054815;28;20032;-76
2021/04/01 00:55:27;;;;;;;6.57;3.75;;;12.70;99.90;;;;;;5036846;28;20124;-76
2021/04/01 00:57:56;;;;;;;4.95;3.30;;;12.80;99.90;;;;;;5054341;28;20029;-75
2021/04/01 01:00:25;;;;;;;5.70;3.80;;;12.80;99.90;;;;;;5054584;28;20029;-76
2021/04/01 01:02:52;;;;;;;9.00;4.18;;;12.80;99.90;;;;;;5054500;28;20047;-76
2021/04/01 01:05:20;;;;;;;6.07;3.80;;;12.70;99.90;;;;;;5054385;28;20033;-75
2021/04/01 01:07:46;;;;;;;9.55;4.25;;;12.80;99.90;;;;;;5054157;28;20025;-76
2021/04/01 01:10:18;;;;;;;5.20;3.85;;;12.70;99.90;;;;;;5054240;28;20032;-73
2021/04/01 01:12:45;;;;;;;6.43;3.53;;;12.80;99.90;;;;;;5054382;28;20040;-76
2021/04/01 01:15:12;;;;;;;6.80;3.58;;;12.80;99.90;;;;;;5054361;28;20068;-74
2021/04/01 01:17:39;;;;;;;6.55;4.35;;;12.80;99.90;;;;;;5053986;28;20108;-76
2021/04/01 01:20:08;;;;;;;5.93;3.50;;;12.80;99.90;;;;;;5053789;28;20040;-75
2021/04/01 01:22:36;;;;;;;6.43;3.97;;;12.80;99.90;;;;;;5054030;28;20037;-75
2021/04/01 01:25:09;;;;;;;6.78;3.70;;;12.80;99.90;;;;;;5053384;28;20029;-75
2021/04/01 01:27:37;;;;;;;6.97;4.15;;;12.80;99.90;;;;;;5053869;28;20507;-75
2021/04/01 01:30:06;;;;;;;7.03;3.83;;;12.80;99.90;;;;;;5054046;28;20021;-75
2021/04/01 01:32:37;;;;;;;8.13;4.93;;;12.80;99.90;;;;;;5036185;28;20095;-75
2021/04/01 01:35:17;;;;;;;6.38;3.33;;;12.70;99.90;;;;;;5053937;28;20029;-74
2021/04/01 01:37:58;;;;;;;6.13;3.95;;;12.70;99.90;;;;;;5053578;28;20107;-75
2021/04/01 01:40:26;;;;;;;9.23;4.22;;;12.70;99.90;;;;;;5053691;28;20112;-76
2021/04/01 01:42:58;;;;;;;8.10;3.90;;;12.60;99.90;;;;;;5053702;28;20142;-75
2021/04/01 01:45:27;;;;;;;7.70;3.80;;;12.70;99.90;;;;;;5053682;28;20021;-75
2021/04/01 01:47:53;;;;;;;6.18;3.40;;;12.70;99.90;;;;;;5035541;28;20801;-75
2021/04/01 01:50:21;;;;;;;5.72;4.00;;;12.60;99.90;;;;;;5053557;28;20036;-75
2021/04/01 01:52:48;;;;;;;7.18;3.80;;;12.60;99.90;;;;;;5053573;28;20471;-73
2021/04/01 01:55:14;;;;;;;5.15;3.17;;;12.60;99.90;;;;;;5035442;28;20395;-74
2021/04/01 01:57:40;;;;;;;5.78;3.45;;;12.60;99.90;;;;;;5053250;28;20036;-74
2021/04/01 02:00:24;;;;;;;5.63;3.75;;;12.60;99.90;;;;;;5035697;28;20528;-75
2021/04/01 02:03:00;;;;;;;6.78;3.90;;;12.60;99.90;;;;;;5053244;28;20033;-75
2021/04/01 02:05:27;;;;;;;5.72;3.45;;;12.60;99.90;;;;;;5053194;28;20029;-74
2021/04/01 02:07:54;;;;;;;5.30;3.42;;;12.50;99.90;;;;;;5053037;28;20033;-74
2021/04/01 02:10:28;;;;;;;6.05;3.60;;;12.50;99.90;;;;;;5053003;28;20035;-74
2021/04/01 02:12:56;;;;;;;5.80;4.25;;;12.50;99.90;;;;;;5053180;28;20087;-75
2021/04/01 02:15:27;;;;;;;6.07;3.95;;;12.50;99.90;;;;;;5052896;28;20044;-74
2021/04/01 02:18:05;;;;;;;5.65;3.83;;;12.60;99.90;;;;;;5052785;28;20066;-74
2021/04/01 02:20:39;;;;;;;9.48;4.20;;;12.60;99.90;;;;;;5052652;28;20032;-75
2021/04/01 02:23:06;;;;;;;5.32;3.40;;;12.50;99.90;;;;;;5052878;28;20491;-75
2021/04/01 02:25:32;;;;;;;7.43;4.03;;;12.50;99.90;;;;;;5052936;28;20386;-75
2021/04/01 02:27:58;;;;;;;6.30;3.78;;;12.50;99.90;;;;;;5052725;28;20131;-74
2021/04/01 02:30:24;;;;;;;4.93;3.65;;;12.30;99.90;;;;;;5052900;28;20036;-74
2021/04/01 02:32:50;;;;;;;6.97;4.22;;;12.20;99.90;;;;;;5053026;28;20025;-75
2021/04/01 02:35:17;;;;;;;7.65;5.18;;;12.10;99.90;;;;;;5052769;28;20530;-75
2021/04/01 02:37:42;;;;;;;6.13;3.75;;;12.30;99.90;;;;;;5052791;28;20426;-75
2021/04/01 02:40:09;;;;;;;6.30;4.68;;;12.40;99.90;;;;;;5052422;28;20021;-75
2021/04/01 02:42:35;;;;;;;6.93;4.18;;;12.70;99.90;;;;;;5052537;28;20041;-75
2021/04/01 02:45:01;;;;;;;8.02;4.13;;;12.80;99.90;;;;;;5052668;28;20024;-75
2021/04/01 02:47:27;;;;;;;5.93;3.70;;;12.70;99.90;;;;;;5052683;28;20074;-75
2021/04/01 02:49:53;;;;;;;6.65;4.00;;;12.50;99.90;;;;;;5052278;28;20084;-75
2021/04/01 02:52:19;;;;;;;6.72;4.07;;;12.50;99.90;;;;;;5051886;28;20044;-74
2021/04/01 02:54:45;;;;;;;4.05;3.45;;;12.40;99.90;;;;;;5052517;28;20033;-75
2021/04/01 02:57:19;;;;;;;7.25;4.28;;;12.40;99.90;;;;;;5052462;28;20041;-75
2021/04/01 02:59:48;;;;;;;5.97;4.57;;;12.40;99.90;;;;;;5052272;28;20028;-75
2021/04/01 03:02:14;;;;;;;6.53;3.67;;;12.40;99.90;;;;;;5052241;28;20029;-74
2021/04/01 03:04:41;;;;;;;6.50;4.22;;;12.40;99.90;;;;;;5034580;28;20085;-74
2021/04/01 03:07:07;;;;;;;5.25;3.47;;;12.40;99.90;;;;;;5052435;28;20025;-74
2021/04/01 03:09:34;;;;;;;8.60;4.43;;;12.40;99.90;;;;;;5052144;28;20044;-75
2021/04/01 03:12:00;;;;;;;6.78;3.95;;;12.40;99.90;;;;;;5052224;28;20395;-75
2021/04/01 03:14:27;;;;;;;5.63;3.80;;;12.40;99.90;;;;;;5051968;28;20597;-74
2021/04/01 03:16:53;;;;;;;6.38;4.03;;;12.40;99.90;;;;;;5052189;28;20036;-74
2021/04/01 03:19:19;;;;;;;8.77;4.78;;;12.40;99.90;;;;;;5052185;28;20032;-74
2021/04/01 03:21:45;;;;;;;5.82;3.95;;;12.30;99.90;;;;;;5033932;28;20505;-74
2021/04/01 03:24:12;;;;;;;6.57;3.75;;;12.40;99.90;;;;;;5051059;28;20048;-74
2021/04/01 03:26:39;;;;;;;6.60;4.60;;;12.40;99.90;;;;;;5052149;28;20479;-74
2021/04/01 03:29:06;;;;;;;6.80;4.20;;;12.40;99.90;;;;;;5052129;28;20594;-74
2021/04/01 03:31:32;;;;;;;8.85;4.60;;;12.30;99.90;;;;;;5051815;28;20052;-75
2021/04/01 03:33:58;;;;;;;6.80;3.50;;;12.30;99.90;;;;;;5052019;28;20068;-74
2021/04/01 03:36:24;;;;;;;6.35;3.80;;;12.30;99.90;;;;;;5051993;28;20039;-74
2021/04/01 03:38:50;;;;;;;7.55;5.10;;;12.30;99.90;;;;;;5052103;28;20021;-73
2021/04/01 03:41:17;;;;;;;5.90;3.67;;;12.30;99.90;;;;;;5051845;28;20021;-74
2021/04/01 03:43:43;;;;;;;6.30;3.70;;;12.30;99.90;;;;;;5051905;28;20033;-75
2021/04/01 03:46:10;;;;;;;5.85;3.78;;;12.30;99.90;;;;;;5052066;28;20032;-75
2021/04/01 03:48:36;;;;;;;5.57;3.80;;;12.40;99.90;;;;;;5052030;28;20025;-75
2021/04/01 03:51:03;;;;;;;4.13;3.63;;;12.40;99.90;;;;;;5051699;28;20386;-75
2021/04/01 03:53:29;;;;;;;6.97;3.40;;;12.40;99.90;;;;;;5051859;28;20029;-75
2021/04/01 03:55:55;;;;;;;6.07;3.70;;;12.40;99.90;;;;;;5051973;28;20043;-75
2021/04/01 04:09:07;;;;;;;7.15;4.03;;;12.30;99.90;;;;;;5035659;28;20053;-76
2021/04/01 04:16:46;;;;;;;8.38;3.92;;;12.20;99.90;;;;;;5064443;28;20049;-75
2021/04/01 04:19:12;;;;;;;6.32;4.20;;;12.20;99.90;;;;;;5055326;28;20032;-74
2021/04/01 04:21:39;;;;;;;7.82;3.75;;;12.20;99.90;;;;;;5055325;28;20479;-74
2021/04/01 04:24:08;;;;;;;5.68;4.25;;;12.10;99.90;;;;;;5054415;28;20044;-75
2021/04/01 04:26:34;;;;;;;8.02;4.35;;;12.10;99.90;;;;;;5044817;28;20025;-75
2021/04/01 04:29:00;;;;;;;8.73;4.28;;;12.20;99.90;;;;;;5045545;28;20060;-75
2021/04/01 04:31:26;;;;;;;9.05;3.75;;;12.30;99.90;;;;;;5043081;28;20084;-75
2021/04/01 04:33:52;;;;;;;7.65;4.68;;;12.40;99.90;;;;;;5027510;28;20026;-74
2021/04/01 04:36:18;;;;;;;9.15;4.47;;;12.60;99.90;;;;;;5022391;28;20515;-75
2021/04/01 04:38:44;;;;;;;6.38;4.07;;;12.70;99.90;;;;;;5044174;28;20099;-75
2021/04/01 04:41:10;;;;;;;6.70;4.10;;;12.70;99.90;;;;;;5043725;28;20029;-75
2021/04/01 04:43:36;;;;;;;9.05;4.55;;;12.80;99.90;;;;;;5047486;28;20545;-75
2021/04/01 04:46:03;;;;;;;8.18;5.00;;;12.70;99.90;;;;;;5048312;28;20046;-75
2021/04/01 04:48:30;;;;;;;7.00;4.47;;;12.70;99.90;;;;;;5045691;28;20029;-73
2021/04/01 04:50:56;;;;;;;10.25;4.85;;;12.70;99.90;;;;;;5043477;28;20021;-75
2021/04/01 04:53:23;;;;;;;6.85;4.15;;;12.70;99.90;;;;;;5034715;28;20168;-75
2021/04/01 04:58:32;;;;;;;5.85;4.00;;;12.70;99.90;;;;;;5054588;28;20372;-74
2021/04/01 05:01:04;;;;;;;10.00;4.57;;;12.70;99.90;;;;;;5018583;28;20414;-75
2021/04/01 05:06:32;;;;;;;9.32;4.72;;;12.80;99.90;;;;;;5041333;28;20040;-73
2021/04/01 05:08:58;;;;;;;;;;;12.80;99.90;;;;;;5050309;28;20498;-75
2021/04/01 05:11:25;;;;;;;10.17;5.20;;;12.80;99.90;;;;;;5044869;28;19908;-74
2021/04/01 05:13:51;;;;;;;8.25;5.30;;;12.40;99.90;;;;;;5034474;28;20477;-74
2021/04/01 05:16:18;;;;;;;6.10;4.72;;;12.00;99.90;;;;;;5033584;28;20215;-75
2021/04/01 05:18:46;;;;;;;8.75;4.88;;;12.00;99.90;;;;;;5051394;28;20514;-75
2021/04/01 05:21:13;;;;;;;10.05;4.97;;;11.90;99.90;;;;;;5052098;28;20029;-74
2021/04/01 05:23:46;;;;;;;7.80;4.82;;;11.90;99.90;;;;;;5053531;28;20041;-74
2021/04/01 05:26:33;;;;;;;10.38;5.53;;;11.90;99.90;;;;;;5053693;28;20029;-73
2021/04/01 05:29:03;;;;;;;10.13;5.32;;;11.80;99.90;;;;;;5049240;28;20510;-73
2021/04/01 05:31:33;;;;;;;7.93;4.45;;;11.80;99.90;;;;;;5047142;28;20057;-73
2021/04/01 05:33:59;;;;;;;8.90;5.03;;;11.90;99.90;;;;;;5033778;28;20061;-74
2021/04/01 05:36:30;;;;;;;6.68;4.30;;;12.10;99.90;;;;;;5033533;28;20029;-74
2021/04/01 05:38:58;;;;;;;11.13;4.53;;;12.20;99.90;;;;;;5045394;28;20044;-74
2021/04/01 05:41:27;;;;;;;8.75;4.60;;;12.30;99.90;;;;;;5053683;28;20692;-75
2021/04/01 06:00:35;;;;;;;7.25;3.97;;;12.90;99.90;;;;;;4991410;28;20496;-74
2021/04/01 06:06:02;;;;;;;7.05;4.70;;;13.00;99.90;;;;;;5044871;28;20495;-73
2021/04/01 06:08:31;;;;;;;9.13;4.50;;;13.10;99.90;;;;;;5053125;28;20025;-73
2021/04/01 06:10:57;;;;;;;6.38;4.57;;;13.10;99.90;;;;;;5043744;28;20395;-74
2021/04/01 06:13:28;;;;;;;7.53;4.22;;;13.20;99.90;;;;;;5035856;28;20029;-75
2021/04/01 06:16:00;;;;;;;8.65;5.53;;;13.20;99.90;;;;;;5033181;28;20049;-72
2021/04/01 06:18:27;;;;;;;10.75;4.93;;;13.20;99.90;;;;;;5033182;28;20025;-74
2021/04/01 06:20:53;;;;;;;7.65;4.68;;;13.30;99.90;;;;;;5047874;28;20100;-74
2021/04/01 06:23:32;;;;;;;7.88;4.65;;;13.30;99.90;;;;;;5048617;28;20108;-73
2021/04/01 06:25:59;;;;;;;8.23;4.97;;;13.40;99.90;;;;;;5036975;28;20113;-72
2021/04/01 06:28:41;;;;;;;11.82;5.15;;;13.50;99.90;;;;;;5035018;28;20029;-73
2021/04/01 06:31:08;;;;;;;12.25;5.25;;;13.60;99.90;;;;;;5052268;28;20452;-73
2021/04/01 06:33:55;;;;;;;8.75;5.03;;;13.60;99.90;;;;;;5052598;28;20086;-76
2021/04/01 06:36:24;;;;;;;10.30;5.88;;;13.70;99.90;;;;;;5033325;28;20032;-74
2021/04/01 06:38:51;;;;;;;11.15;6.25;;;13.70;99.90;;;;;;5015286;28;20060;-73
2021/04/01 06:41:24;;;;;;;11.70;4.95;;;13.70;99.90;;;;;;5043335;28;20025;-74
2021/04/01 06:43:56;;;;;;;13.50;5.72;;;13.80;99.90;;;;;;5052684;28;20376;-71
2021/04/01 06:46:40;;;;;;;8.32;5.20;;;13.80;99.90;;;;;;5052219;28;20017;-74
2021/04/01 06:52:04;;;;;;;9.70;6.45;;;14.00;99.90;;;;;;5040314;28;20136;-76
2021/04/01 07:00:19;;;;;;;9.82;6.50;;;14.20;99.90;;;;;;5041814;28;20068;-75
2021/04/01 07:03:04;;;;;;;11.27;6.13;;;14.20;99.90;;;;;;5050066;28;20041;-75
2021/04/01 07:06:05;;;;;;;10.45;6.28;;;14.30;99.90;;;;;;5048237;28;20029;-76
2021/04/01 07:08:52;;;;;;;9.57;6.03;;;14.40;99.90;;;;;;5035325;28;20041;-75
2021/04/01 07:11:30;;;;;;;14.02;6.78;;;14.60;99.90;;;;;;5042391;28;20048;-73
2021/04/01 07:14:04;;;;;;;9.65;6.05;;;14.70;99.90;;;;;;5052168;28;20065;-75
2021/04/01 07:47:21;;;;;;;15.27;6.80;;;15.60;99.90;;;;;;5055444;28;20086;-75
2021/04/01 07:49:49;;;;;;;10.80;6.68;;;15.80;99.90;;;;;;5055556;28;20108;-76
2021/04/01 07:52:19;;;;;;;10.63;6.00;;;15.80;99.90;;;;;;5054512;28;20479;-81
2021/04/01 08:00:20;;;;;;;11.27;5.40;;;16.10;99.90;;;;;;5030342;28;20040;-81
2021/04/01 08:05:29;;;;;;;10.60;6.45;;;16.20;99.90;;;;;;5035920;28;20037;-83
2021/04/01 08:08:10;;;;;;;11.07;5.15;;;16.30;99.90;;;;;;5046389;28;20103;-93
2021/04/01 08:10:43;;;;;;;9.07;5.55;;;16.30;99.90;;;;;;5055534;28;20495;-80
2021/04/01 08:13:14;;;;;;;7.85;4.32;;;16.40;99.90;;;;;;5038303;28;20484;-81
2021/04/01 08:15:52;;;;;;;7.25;4.68;;;16.60;99.90;;;;;;5037323;28;20052;-81
2021/04/01 08:20:52;;;;;;;9.20;5.35;;;16.60;99.90;;;;;;5037527;28;20029;-85
2021/04/01 08:26:06;;;;;;;9.93;5.30;;;16.80;99.90;;;;;;5038390;28;20090;-85
2021/04/01 08:36:21;;;;;;;9.05;4.82;;;16.90;99.90;;;;;;5019806;28;20029;-85
2021/04/01 08:38:48;;;;;;;7.30;4.97;;;17.10;99.90;;;;;;5033094;28;20028;-86
2021/04/01 08:41:38;;;;;;;6.85;3.97;;;17.20;99.90;;;;;;5055307;28;20025;-87
2021/04/01 08:44:25;;;;;;;13.02;4.30;;;17.20;99.90;;;;;;5041835;28;20413;-87
2021/04/01 08:47:31;;;;;;;11.30;4.47;;;17.40;99.90;;;;;;5045207;28;20033;-84
2021/04/01 08:50:28;;;;;;;10.30;4.38;;;17.50;99.90;;;;;;5018548;28;20431;-81
2021/04/01 08:53:00;;;;;;;7.78;3.85;;;17.60;99.90;;;;;;5046460;28;20025;-77
2021/04/01 08:55:54;;;;;;;8.60;4.38;;;17.60;99.90;;;;;;5047953;28;20037;-77
2021/04/01 08:58:31;;;;;;;9.55;4.47;;;17.60;99.90;;;;;;5016773;28;20538;-77
2021/04/01 09:01:13;;;;;;;6.65;4.18;;;17.70;99.90;;;;;;5016243;28;20025;-80
2021/04/01 09:03:41;;;;;;;8.27;4.32;;;17.60;99.90;;;;;;5029868;28;20048;-83
2021/04/01 09:06:09;;;;;;;6.43;3.75;;;17.70;99.90;;;;;;5042998;28;20025;-84
2021/04/01 09:08:38;;;;;;;10.77;4.32;;;17.80;99.90;;;;;;5048704;28;20064;-79
2021/04/01 09:11:08;;;;;;;6.25;3.85;;;17.90;99.90;;;;;;5034037;28;20022;-79
2021/04/01 09:13:39;;;;;;;6.85;4.07;;;18.00;99.90;;;;;;5016727;28;20033;-77
2021/04/01 09:16:29;;;;;;;8.88;4.00;;;17.90;99.90;;;;;;5052087;28;20115;-77
2021/04/01 09:19:05;;;;;;;6.60;4.03;;;18.00;99.90;;;;;;5039190;28;20387;-75
2021/04/01 09:21:32;;;;;;;5.35;3.88;;;18.10;99.90;;;;;;5017960;28;20021;-77
2021/04/01 09:24:00;;;;;;;7.05;4.45;;;18.20;99.90;;;;;;5035427;28;20044;-79
2021/04/01 09:26:27;;;;;;;6.68;4.30;;;18.10;99.90;;;;;;5034093;28;20053;-78
2021/04/01 09:29:04;;;;;;;8.23;4.93;;;18.20;99.90;;;;;;5043415;28;20040;-79
2021/04/01 09:34:26;;;;;;;7.05;4.35;;;18.40;99.90;;;;;;5032481;28;20070;-76
2021/04/01 09:36:54;;;;;;;8.75;4.72;;;18.50;99.90;;;;;;5048392;28;20100;-76
2021/04/01 09:39:31;;;;;;;13.90;4.63;;;18.60;99.90;;;;;;5041675;28;20435;-77
2021/04/01 09:42:04;;;;;;;6.78;4.25;;;18.50;99.90;;;;;;5049249;28;20025;-75
2021/04/01 09:44:30;;;;;;;9.15;3.90;;;18.50;99.90;;;;;;5036682;28;20069;-75
2021/04/01 09:47:08;;;;;;;7.60;3.95;;;18.60;99.90;;;;;;5053169;28;20122;-76
2021/04/01 09:49:50;;;;;;;9.05;5.22;;;18.70;99.90;;;;;;5033801;28;20511;-77
2021/04/01 09:52:26;;;;;;;8.85;4.18;;;18.80;99.90;;;;;;5049363;28;20017;-75
2021/04/01 09:54:58;;;;;;;6.95;3.58;;;18.90;99.90;;;;;;5053188;28;20475;-78
2021/04/01 09:57:40;;;;;;;7.78;4.03;;;18.90;99.90;;;;;;5033038;28;20584;-78
2021/04/01 10:00:19;;;;;;;6.15;3.92;;;19.00;99.90;;;;;;5043287;28;20134;-76
2021/04/01 10:03:04;;;;;;;16.77;4.50;;;18.90;99.80;;;;;;5037947;28;20182;-81
2021/04/01 10:05:40;;;;;;;8.20;3.85;;;19.00;99.90;;;;;;5042984;28;20029;-75
2021/04/01 10:08:11;;;;;;;11.50;4.38;;;19.10;99.90;;;;;;5040091;28;20052;-77
2021/04/01 10:10:43;;;;;;;7.05;3.95;;;19.20;99.30;;;;;;5043990;28;20124;-76
2021/04/01 10:13:22;;;;;;;6.45;4.05;;;19.40;98.90;;;;;;5036242;28;20053;-77
2021/04/01 10:15:49;;;;;;;8.52;4.03;;;19.30;97.80;;;;;;5044443;28;20056;-77
2021/04/01 10:18:23;;;;;;;5.90;4.00;;;19.30;98.40;;;;;;5052777;28;20379;-79
2021/04/01 10:21:10;;;;;;;6.57;3.90;;;19.40;98.50;;;;;;5052588;28;20029;-77
2021/04/01 10:23:52;;;;;;;10.50;3.70;;;19.50;97.50;;;;;;5035758;28;20510;-78
2021/04/01 10:26:29;;;;;;;7.22;3.55;;;19.70;95.00;;;;;;5041372;28;20025;-78
2021/04/01 10:29:27;;;;;;;8.82;3.83;;;19.90;96.40;;;;;;5035464;28;20041;-78
2021/04/01 10:31:52;;;;;;;15.07;5.22;;;20.10;96.80;;;;;;5040514;28;20037;-80
2021/04/01 10:34:52;;;;;;;7.88;4.32;;;20.10;96.40;;;;;;5046008;28;20108;-80
2021/04/01 10:37:21;;;;;;;4.35;3.30;;;20.10;96.60;;;;;;5044729;28;20029;-79
2021/04/01 10:39:47;;;;;;;5.90;3.55;;;20.00;95.10;;;;;;5030118;28;20039;-78
2021/04/01 10:42:21;;;;;;;5.32;4.00;;;20.20;94.80;;;;;;5046710;28;20032;-78
2021/04/01 10:45:03;;;;;;;13.30;5.10;;;20.30;95.10;;;;;;5051897;28;20510;-79
2021/04/01 10:47:42;;;;;;;7.20;4.07;;;20.40;95.60;;;;;;5034361;28;20059;-81
2021/04/01 10:50:08;;;;;;;5.10;3.80;;;20.50;94.30;;;;;;5050930;28;20029;-76
2021/04/01 10:52:36;;;;;;;7.65;4.18;;;20.50;95.10;;;;;;5034632;28;20032;-80
2021/04/01 10:55:02;;;;;;;7.65;3.90;;;20.40;94.30;;;;;;5039038;28;20542;-78
2021/04/01 10:57:30;;;;;;;4.35;3.60;;;20.60;94.10;;;;;;5032204;28;20423;-79
2021/04/01 11:00:00;;;;;;;7.07;3.75;;;20.80;94.70;;;;;;5040091;28;20113;-79
2021/04/01 11:02:36;;;;;;;6.15;3.88;;;20.80;93.00;;;;;;5044932;28;20025;-78
2021/04/01 11:05:19;;;;;;;6.90;3.55;;;21.10;92.60;;;;;;5037367;28;20033;-81
2021/04/01 11:07:49;;;;;;;;;;;21.20;91.90;;;;;;5004278;28;20036;-78
2021/04/01 11:10:28;;;;;;;6.10;3.20;;;21.30;91.60;;;;;;5045824;28;19909;-82
2021/04/01 11:12:59;;;;;;;9.35;3.95;;;21.10;91.30;;;;;;5051422;28;20029;-79
2021/04/01 11:15:40;;;;;;;5.13;3.47;;;21.10;90.80;;;;;;5051665;28;20060;-79
2021/04/01 11:18:17;;;;;;;5.05;3.55;;;21.20;90.30;;;;;;5048658;28;20061;-78
2021/04/01 11:20:44;;;;;;;9.70;3.08;;;21.30;90.50;;;;;;5055422;28;20059;-78
2021/04/01 11:23:18;;;;;;;5.20;3.42;;;21.20;90.00;;;;;;5043104;28;20029;-79
2021/04/01 11:25:50;;;;;;;9.05;3.13;;;21.20;90.90;;;;;;5046935;28;20029;-80
2021/04/01 11:28:16;;;;;;;3.50;2.58;;;21.30;86.50;;;;;;5052063;28;20071;-78
2021/04/01 11:30:49;;;;;;;5.25;2.92;;;21.20;86.20;;;;;;5052199;28;20036;-85
2021/04/01 11:33:18;;;;;;;4.45;3.03;;;21.20;88.90;;;;;;5048969;28;20100;-80
2021/04/01 11:35:49;;;;;;;8.90;4.25;;;21.50;89.20;;;;;;5042778;28;20037;-80
2021/04/01 11:38:22;;;;;;;7.47;4.30;;;21.70;87.20;;;;;;5050092;28;20037;-82
2021/04/01 11:41:03;;;;;;;5.03;3.15;;;21.90;87.50;;;;;;5039370;28;20029;-79
2021/04/01 11:43:35;;;;;;;8.93;3.80;;;21.70;86.20;;;;;;5038472;28;20073;-86
2021/04/01 11:46:23;;;;;;;5.50;3.00;;;21.60;85.30;;;;;;5032048;28;20028;-78
2021/04/01 11:48:50;;;;;;;6.65;3.30;;;21.80;86.80;;;;;;5035773;28;20037;-78
2021/04/01 11:51:22;;;;;;;5.00;3.00;;;21.80;86.50;;;;;;5029791;28;20033;-82
2021/04/01 11:53:48;;;;;;;4.03;2.92;;;21.70;83.30;;;;;;5032418;28;20030;-87
2021/04/01 11:56:15;;;;;;;4.43;2.97;;;21.50;83.90;;;;;;5046312;28;20387;-88
2021/04/01 11:58:41;;;;;;;8.27;3.30;;;21.50;86.00;;;;;;5073098;28;20025;-90
2021/04/01 12:01:23;;;;;;;5.60;3.90;;;21.70;85.60;;;;;;5067274;28;20067;-92
2021/04/01 12:03:59;;;;;;;7.88;3.63;;;21.50;83.90;;;;;;5053218;28;20041;-88
2021/04/01 12:06:28;;;;;;;4.03;3.00;;;21.60;86.30;;;;;;5036386;28;20100;-92
2021/04/01 12:08:56;;;;;;;5.82;3.53;;;21.80;84.80;;;;;;5063777;28;20040;-91
2021/04/01 12:11:22;;;;;;;6.07;3.50;;;22.00;84.10;;;;;;5031829;28;20025;-87
2021/04/01 12:13:48;;;;;;;5.95;3.95;;;22.20;82.90;;;;;;5032826;28;20111;-92
2021/04/01 12:16:19;;;;;;;4.72;3.13;;;22.10;80.40;;;;;;5032074;28;20503;-83
2021/04/01 12:18:46;;;;;;;6.30;3.33;;;22.10;80.40;;;;;;5051165;28;20029;-88
2021/04/01 12:21:13;;;;;;;5.45;2.97;;;22.00;81.90;;;;;;5034124;28;20424;-86
2021/04/01 12:23:48;;;;;;;6.00;3.72;;;22.10;81.60;;;;;;5031876;28;20037;-85
2021/04/01 12:26:15;;;;;;;5.82;3.65;;;22.00;82.80;;;;;;5050426;28;20040;-88
2021/04/01 12:28:41;;;;;;;6.10;3.42;;;22.00;81.10;;;;;;5065349;28;20561;-85
2021/04/01 12:31:14;;;;;;;4.18;3.10;;;21.70;78.80;;;;;;5037660;28;20029;-78
2021/04/01 12:33:51;;;;;;;4.93;3.03;;;21.90;80.00;;;;;;5055130;28;20094;-85
2021/04/01 12:36:29;;;;;;;5.03;3.60;;;22.30;79.80;;;;;;5056147;28;20032;-84
2021/04/01 12:38:55;;;;;;;5.32;2.97;;;22.40;78.70;;;;;;5068766;28;20029;-85
2021/04/01 12:41:28;;;;;;;5.35;3.97;;;22.50;79.80;;;;;;5032222;28;20388;-82
2021/04/01 12:43:54;;;;;;;5.07;3.80;;;22.50;77.60;;;;;;5030562;28;20029;-84
2021/04/01 12:46:21;;;;;;;5.25;3.13;;;22.70;77.90;;;;;;5022570;28;20025;-84
2021/04/01 12:48:54;;;;;;;5.07;3.05;;;22.60;75.00;;;;;;5034304;28;20108;-83
2021/04/01 12:51:22;;;;;;;5.85;3.03;;;22.40;74.90;;;;;;5012745;28;20072;-82
2021/04/01 12:54:06;;;;;;;5.00;3.08;;;22.60;75.40;;;;;;5042231;28;20135;-84
2021/04/01 12:56:35;;;;;;;5.38;2.70;;;22.80;74.30;;;;;;5039134;28;20433;-82
2021/04/01 12:59:04;;;;;;;8.85;3.20;;;23.10;76.10;;;;;;5053434;28;20036;-83
2021/04/01 13:04:08;;;;;;;4.97;3.17;;;22.80;73.10;;;;;;5050461;28;20033;-81
2021/04/01 13:11:26;;;;;;;4.60;3.43;;;22.90;70.50;;;;;;5029080;28;20433;-80
2021/04/01 13:13:54;;;;;;;6.03;3.60;;;23.00;73.30;;;;;;5034900;28;20294;-80
2021/04/01 13:16:21;;;;;;;4.97;3.83;;;23.20;74.00;;;;;;5046150;28;20045;-83
2021/04/01 13:18:47;;;;;;;4.55;3.58;;;23.00;70.80;;;;;;5043987;28;20038;-82
2021/04/01 13:24:04;;;;;;;4.05;2.97;;;23.10;73.40;;;;;;5032014;28;20049;-83
2021/04/01 13:26:34;;;;;;;4.45;2.80;;;23.50;72.50;;;;;;5050219;28;20028;-79
2021/04/01 13:29:02;;;;;;;5.97;3.35;;;23.60;71.30;;;;;;5048237;28;20082;-79
2021/04/01 13:34:16;;;;;;;5.93;3.88;;;23.60;73.50;;;;;;5030062;28;20174;-81
2021/04/01 13:39:32;;;;;;;4.60;3.17;;;23.60;71.80;;;;;;5032632;28;20070;-79
2021/04/01 13:45:06;;;;;;;7.30;3.17;;;23.70;69.90;;;;;;5018935;28;20495;-79
2021/04/01 13:47:36;;;;;;;4.15;2.92;;;23.30;71.80;;;;;;5031145;28;20120;-79
2021/04/01 13:50:03;;;;;;;4.78;3.20;;;23.70;71.50;;;;;;5048857;28;20082;-79
2021/04/01 13:52:37;;;;;;;4.72;3.38;;;23.60;72.10;;;;;;5032031;28;20037;-81
2021/04/01 13:55:15;;;;;;;4.78;2.90;;;23.80;73.10;;;;;;5015594;28;20025;-79
2021/04/01 14:01:10;;;;;;;5.78;3.60;;;23.40;70.60;;;;;;5041623;28;20040;-79
2021/04/01 14:09:33;;;;;;;4.75;3.63;;;23.10;72.90;;;;;;4960536;28;20154;-78
2021/04/01 14:12:02;;;;;;;6.28;3.50;;;22.90;70.80;;;;;;5000205;28;20480;-79
2021/04/01 14:14:29;;;;;;;4.45;3.58;;;22.90;72.40;;;;;;5034917;28;20036;-79
2021/04/01 14:16:57;;;;;;;5.22;3.42;;;22.90;71.20;;;;;;5034569;28;20132;-82
2021/04/01 14:19:25;;;;;;;8.25;4.10;;;22.90;71.80;;;;;;5034818;28;20036;-83
2021/04/01 14:22:00;;;;;;;4.43;3.30;;;23.00;71.40;;;;;;5035141;28;20029;-80
2021/04/01 14:24:43;;;;;;;4.93;3.20;;;23.40;71.00;;;;;;5052211;28;20270;-81
2021/04/01 14:29:47;;;;;;;4.00;3.55;;;23.30;72.60;;;;;;5052594;28;20024;-79
2021/04/01 14:32:14;;;;;;;5.20;3.25;;;23.00;67.60;;;;;;5032535;28;20029;-79
2021/04/01 14:34:40;;;;;;;3.22;2.83;;;22.60;67.10;;;;;;5050485;28;20029;-79
2021/04/01 14:37:08;;;;;;;5.78;4.05;;;22.50;68.20;;;;;;5050899;28;20391;-78
2021/04/01 14:39:34;;;;;;;6.18;3.67;;;22.40;69.20;;;;;;5049521;28;20094;-78
2021/04/01 14:42:09;;;;;;;6.40;4.22;;;22.40;71.20;;;;;;5022432;28;20415;-79
2021/04/01 14:44:35;;;;;;;6.90;4.15;;;22.30;72.80;;;;;;5033187;28;20375;-79
2021/04/01 14:47:03;;;;;;;4.65;3.60;;;22.40;70.80;;;;;;5032178;28;20036;-79
2021/04/01 14:49:29;;;;;;;8.25;4.38;;;22.70;70.00;;;;;;5031083;28;20470;-79
2021/04/01 14:51:55;;;;;;;7.60;4.65;;;22.80;72.30;;;;;;5007423;28;20037;-82
2021/04/01 14:54:30;;;;;;;6.50;3.20;;;22.60;71.70;;;;;;5044572;28;20028;-82
2021/04/01 14:57:06;;;;;;;6.88;3.95;;;22.50;69.00;;;;;;5046926;28;20033;-82
2021/04/01 14:59:37;;;;;;;7.13;3.45;;;22.30;71.30;;;;;;5043934;28;20033;-83
2021/04/01 15:02:05;;;;;;;7.50;4.22;;;22.10;70.40;;;;;;5025077;28;20372;-84
2021/04/01 15:04:32;;;;;;;7.47;4.55;;;22.20;72.60;;;;;;5034779;28;20093;-78
2021/04/01 15:07:00;;;;;;;5.88;3.53;;;22.30;72.50;;;;;;5031565;28;20080;-85
2021/04/01 15:09:27;;;;;;;9.18;3.60;;;22.20;72.40;;;;;;5040611;28;20061;-83
2021/04/01 15:11:53;;;;;;;6.55;3.83;;;22.00;70.00;;;;;;5034373;28;20021;-84
2021/04/01 15:14:19;;;;;;;4.95;2.88;;;22.00;71.50;;;;;;5051747;28;20530;-81
2021/04/01 15:16:45;;;;;;;5.75;3.65;;;22.30;72.60;;;;;;5052348;28;20047;-83
2021/04/01 15:19:14;;;;;;;6.63;3.42;;;22.40;71.60;;;;;;5033649;28;20119;-85